createdAt,value
2023-01-13T00:02:54.413Z,-13.25
2023-01-13T00:08:00.149Z,-13.26
2023-01-13T00:13:06.368Z,-13.52
2023-01-13T00:18:12.275Z,-13.29
2023-01-13T00:23:18.351Z,-13.05
2023-01-13T00:28:24.038Z,-12.78
2023-01-13T00:33:29.791Z,-12.65
2023-01-13T00:38:37.057Z,-12.65
2023-01-13T00:43:43.877Z,-12.60
2023-01-13T00:48:50.416Z,-12.44
2023-01-13T00:53:56.295Z,-12.04
2023-01-13T00:59:02.773Z,-12.53
2023-01-13T01:04:08.499Z,-12.94
2023-01-13T01:09:18.292Z,-13.19
2023-01-13T01:14:23.591Z,-13.43
2023-01-13T01:19:29.815Z,-13.58
2023-01-13T01:24:35.465Z,-13.31
2023-01-13T01:29:41.053Z,-12.96
2023-01-13T01:34:45.336Z,-12.61
2023-01-13T01:39:50.983Z,-12.57
2023-01-13T01:45:16.090Z,-12.58
2023-01-13T01:50:22.005Z,-12.53
2023-01-13T01:55:35.510Z,-12.64
2023-01-13T02:00:41.559Z,-13.13
2023-01-13T02:05:46.824Z,-12.98
2023-01-13T02:10:55.017Z,-12.76
2023-01-13T02:16:37.740Z,-12.70
2023-01-13T02:21:50.405Z,-12.59
2023-01-13T02:27:23.746Z,-11.89
2023-01-13T02:32:55.589Z,-11.44
2023-01-13T02:38:03.718Z,-11.25
2023-01-13T02:43:35.790Z,-11.15
2023-01-13T02:48:45.492Z,-11.15
2023-01-13T02:54:22.681Z,-11.01
2023-01-13T02:59:30.895Z,-11.17
2023-01-13T03:04:58.065Z,-11.18
2023-01-13T03:10:19.446Z,-11.52
2023-01-13T03:15:39.221Z,-11.10
2023-01-13T03:21:01.975Z,-11.20
2023-01-13T03:26:29.776Z,-11.18
2023-01-13T03:31:42.766Z,-11.16
2023-01-13T03:36:51.854Z,-11.24
2023-01-13T03:42:05.544Z,-11.45
2023-01-13T03:47:23.626Z,-11.12
2023-01-13T03:52:48.186Z,-11.69
2023-01-13T03:58:07.364Z,-11.72
2023-01-13T04:03:37.089Z,-11.58
2023-01-13T04:08:52.499Z,-11.63
2023-01-13T04:14:00.685Z,-12.04
2023-01-13T04:19:07.221Z,-11.65
2023-01-13T04:24:12.746Z,-12.02
2023-01-13T04:29:17.287Z,-11.65
2023-01-13T04:34:22.692Z,-11.69
2023-01-13T04:39:26.929Z,-11.93
2023-01-13T04:44:35.837Z,-11.57
2023-01-13T04:49:40.052Z,-11.86
2023-01-13T04:54:44.341Z,-12.03
2023-01-13T04:59:49.598Z,-11.82
2023-01-13T05:04:53.999Z,-11.92
2023-01-13T05:10:00.166Z,-11.51
2023-01-13T05:15:24.731Z,-11.61
2023-01-13T05:20:29.916Z,-12.01
2023-01-13T05:25:42.860Z,-11.63
2023-01-13T05:30:49.951Z,-11.32
2023-01-13T05:35:56.329Z,-11.23
2023-01-13T05:41:22.464Z,-11.55
2023-01-13T05:46:26.775Z,-10.97
2023-01-13T05:51:33.028Z,-11.22
2023-01-13T05:56:39.179Z,-10.94
2023-01-13T06:01:43.808Z,-11.18
2023-01-13T06:06:49.509Z,-11.16
2023-01-13T06:11:53.783Z,-10.94
2023-01-13T06:16:59.379Z,-10.67
2023-01-13T06:22:29.748Z,-11.00
2023-01-13T06:27:35.461Z,-10.91
2023-01-13T06:32:46.507Z,-10.74
2023-01-13T06:37:53.388Z,-11.03
2023-01-13T06:43:17.553Z,-11.07
2023-01-13T06:48:26.649Z,-10.72
2023-01-13T06:53:30.872Z,-11.16
2023-01-13T06:58:35.610Z,-10.65
2023-01-13T07:03:41.565Z,-10.71
2023-01-13T07:08:47.247Z,-10.28
2023-01-13T07:14:10.341Z,-10.48
2023-01-13T07:19:14.731Z,-10.04
2023-01-13T07:24:21.076Z,-10.08
2023-01-13T07:29:25.372Z,-10.59
2023-01-13T07:34:29.612Z,-9.94
2023-01-13T07:39:33.991Z,-9.66
2023-01-13T07:44:38.976Z,-9.57
2023-01-13T07:49:44.462Z,-10.15
2023-01-13T07:54:52.244Z,-10.09
2023-01-13T07:59:56.583Z,-10.31
2023-01-13T08:05:00.870Z,-9.81
2023-01-13T08:10:05.687Z,-10.26
2023-01-13T08:15:11.401Z,-10.05
2023-01-13T08:20:17.565Z,-10.06
2023-01-13T08:25:24.271Z,-9.98
2023-01-13T08:30:29.965Z,-10.05
2023-01-13T08:35:42.929Z,-9.68
2023-01-13T08:40:48.231Z,-9.95
2023-01-13T08:46:01.218Z,-9.83
2023-01-13T08:51:11.947Z,-9.51
2023-01-13T08:56:17.703Z,-9.66
2023-01-13T09:01:24.103Z,-9.78
2023-01-13T09:06:29.895Z,-9.47
2023-01-13T09:11:54.895Z,-9.38
2023-01-13T09:17:00.749Z,-9.05
2023-01-13T09:22:05.696Z,-8.80
2023-01-13T09:27:15.565Z,-8.53
2023-01-13T09:32:19.808Z,-8.66
2023-01-13T09:37:26.810Z,-8.42
2023-01-13T09:43:08.702Z,-8.40
2023-01-13T09:48:19.002Z,-8.41
2023-01-13T09:53:34.005Z,-8.50
2023-01-13T09:58:40.243Z,-8.54
2023-01-13T10:03:44.808Z,-8.58
2023-01-13T10:08:50.911Z,-8.21
2023-01-13T10:14:18.029Z,-8.28
2023-01-13T10:19:31.284Z,-8.15
2023-01-13T10:25:11.867Z,-7.82
2023-01-13T10:30:22.110Z,-7.97
2023-01-13T10:35:52.439Z,-8.12
2023-01-13T10:41:00.232Z,-8.01
2023-01-13T10:46:08.112Z,-7.96
2023-01-13T10:51:15.446Z,-8.11
2023-01-13T10:56:22.788Z,-7.88
2023-01-13T11:01:28.376Z,-7.72
2023-01-13T11:06:34.718Z,-7.85
2023-01-13T11:11:44.348Z,-7.57
2023-01-13T11:16:54.058Z,-7.59
2023-01-13T11:22:21.549Z,-7.59
2023-01-13T11:28:01.438Z,-7.47
2023-01-13T11:33:27.632Z,-7.24
2023-01-13T11:38:56.285Z,-7.57
2023-01-13T11:44:11.902Z,-7.68
2023-01-13T11:49:34.929Z,-7.91
2023-01-13T11:54:48.604Z,-7.69
2023-01-13T12:00:24.670Z,-7.94
2023-01-13T12:05:46.121Z,-7.92
2023-01-13T12:11:02.698Z,-7.92
2023-01-13T12:16:31.201Z,-7.92
2023-01-13T12:21:42.198Z,-7.92
2023-01-13T12:27:05.146Z,-7.90
2023-01-13T12:32:21.548Z,-7.97
2023-01-13T12:37:55.663Z,-8.00
2023-01-13T12:43:39.752Z,-7.97
2023-01-13T12:49:00.177Z,-8.44
2023-01-13T12:54:38.232Z,-8.01
2023-01-13T12:59:42.700Z,-8.05
2023-01-13T13:04:51.421Z,-8.33
2023-01-13T13:10:21.608Z,-8.28
2023-01-13T13:15:34.756Z,-8.31
2023-01-13T13:21:07.446Z,-8.53
2023-01-13T13:26:21.959Z,-8.43
2023-01-13T13:31:54.379Z,-8.58
2023-01-13T13:37:24.146Z,-8.46
2023-01-13T13:42:49.708Z,-8.44
2023-01-13T13:47:54.101Z,-8.55
2023-01-13T13:53:11.286Z,-8.69
2023-01-13T13:58:26.251Z,-8.89
2023-01-13T14:03:34.145Z,-8.99
2023-01-13T14:08:40.890Z,-9.14
2023-01-13T14:13:49.179Z,-9.09
2023-01-13T14:18:53.479Z,-9.15
2023-01-13T14:24:02.674Z,-9.15
2023-01-13T14:29:15.781Z,-9.46
2023-01-13T14:34:32.528Z,-9.51
2023-01-13T14:39:45.703Z,-9.62
2023-01-13T14:44:53.034Z,-9.53
2023-01-13T14:50:30.100Z,-9.79
2023-01-13T14:55:39.788Z,-10.26
2023-01-13T15:00:46.557Z,-10.50
2023-01-13T15:05:54.863Z,-10.43
2023-01-13T15:11:03.694Z,-10.73
2023-01-13T15:16:21.424Z,-10.62
2023-01-13T15:21:27.621Z,-10.71
2023-01-13T15:26:34.157Z,-10.83
2023-01-13T15:31:39.777Z,-10.81
2023-01-13T15:36:46.378Z,-10.85
2023-01-13T15:42:12.108Z,-11.03
2023-01-13T15:47:18.997Z,-11.13
2023-01-13T15:52:27.066Z,-11.06
2023-01-13T15:57:37.148Z,-11.15
2023-01-13T16:02:44.957Z,-11.24
2023-01-13T16:07:51.893Z,-11.24
2023-01-13T16:12:57.822Z,-11.21
2023-01-13T16:18:05.317Z,-11.32
2023-01-13T16:23:11.853Z,-11.26
2023-01-13T16:28:29.020Z,-11.08
2023-01-13T16:33:34.766Z,-11.16
2023-01-13T16:38:42.154Z,-11.25
2023-01-13T16:43:48.688Z,-11.22
2023-01-13T16:48:58.617Z,-11.27
2023-01-13T16:54:04.504Z,-11.19
2023-01-13T16:59:14.823Z,-10.97
2023-01-13T17:04:24.100Z,-11.13
2023-01-13T17:09:30.421Z,-11.44
2023-01-13T17:14:36.139Z,-11.55
2023-01-13T17:19:41.786Z,-11.54
2023-01-13T17:24:48.820Z,-11.81
2023-01-13T17:29:55.226Z,-12.13
2023-01-13T17:35:03.148Z,-12.02
2023-01-13T17:40:10.156Z,-11.89
2023-01-13T17:45:16.882Z,-11.80
2023-01-13T17:50:22.619Z,-11.83
2023-01-13T17:55:28.381Z,-12.44
2023-01-13T18:00:35.144Z,-12.52
2023-01-13T18:05:41.633Z,-12.64
2023-01-13T18:10:55.378Z,-12.54
2023-01-13T18:16:16.339Z,-12.57
2023-01-13T18:21:44.244Z,-12.21
2023-01-13T18:27:10.070Z,-12.02
2023-01-13T18:32:16.043Z,-12.26
2023-01-13T18:37:21.912Z,-12.48
2023-01-13T18:42:46.883Z,-12.69
2023-01-13T18:47:53.904Z,-12.99
2023-01-13T18:52:59.573Z,-13.14
2023-01-13T18:58:05.313Z,-12.97
2023-01-13T19:03:12.396Z,-13.24
2023-01-13T19:08:18.116Z,-13.15
2023-01-13T19:13:23.688Z,-12.79
2023-01-13T19:18:29.245Z,-12.83
2023-01-13T19:23:35.197Z,-12.68
2023-01-13T19:28:41.405Z,-12.72
2023-01-13T19:33:47.135Z,-12.87
2023-01-13T19:38:53.092Z,-13.04
2023-01-13T19:44:19.212Z,-13.30
2023-01-13T19:49:25.369Z,-13.35
2023-01-13T19:54:31.173Z,-13.39
2023-01-13T19:59:42.983Z,-13.41
2023-01-13T20:04:49.495Z,-13.62
2023-01-13T20:09:56.941Z,-13.57
2023-01-13T20:15:02.431Z,-13.58
2023-01-13T20:20:11.045Z,-13.58
2023-01-13T20:25:18.042Z,-13.26
2023-01-13T20:30:24.385Z,-13.24
2023-01-13T20:35:30.459Z,-13.44
2023-01-13T20:40:43.673Z,-13.77
2023-01-13T20:45:50.418Z,-13.59
2023-01-13T20:50:58.492Z,-13.45
2023-01-13T20:56:14.613Z,-13.38
2023-01-13T21:01:20.797Z,-13.26
2023-01-13T21:06:27.711Z,-13.03
2023-01-13T21:11:52.610Z,-13.20
2023-01-13T21:16:58.283Z,-13.31
2023-01-13T21:22:04.731Z,-13.79
2023-01-13T21:27:10.736Z,-13.97
2023-01-13T21:32:16.609Z,-14.20
2023-01-13T21:37:22.824Z,-14.07
2023-01-13T21:42:48.868Z,-13.96
2023-01-13T21:47:55.054Z,-14.31
2023-01-13T21:53:00.846Z,-14.35
2023-01-13T21:58:15.701Z,-14.54
2023-01-13T22:03:21.494Z,-14.66
2023-01-13T22:08:27.178Z,-14.60
2023-01-13T22:13:53.456Z,-14.46
2023-01-13T22:18:59.439Z,-14.53
2023-01-13T22:24:05.445Z,-14.42
2023-01-13T22:29:11.065Z,-14.27
2023-01-13T22:34:16.704Z,-14.04
2023-01-13T22:39:22.425Z,-13.62
2023-01-13T22:44:28.368Z,-13.21
2023-01-13T22:49:33.590Z,-13.29
2023-01-13T22:54:39.496Z,-13.03
2023-01-13T22:59:45.126Z,-13.49
2023-01-13T23:04:51.211Z,-13.81
2023-01-13T23:09:58.484Z,-13.85
2023-01-13T23:15:05.953Z,-13.84
2023-01-13T23:20:12.284Z,-13.76
2023-01-13T23:25:18.084Z,-14.02
2023-01-13T23:30:23.894Z,-14.02
2023-01-13T23:35:29.665Z,-13.99
2023-01-13T23:40:36.612Z,-14.13
2023-01-13T23:45:42.468Z,-14.18
2023-01-13T23:50:59.578Z,-14.26
2023-01-13T23:56:08.031Z,-14.32
